sensor_id;sensor_type;location;lat;lon;timestamp;P1;durP1;ratioP1;P2;durP2;ratioP2
11735;SDS011;5924;51.398;7.088;2022-11-12T00:00:29;4.53;;;3.80;;
11735;SDS011;5924;51.398;7.088;2022-11-12T00:02:55;3.93;;;3.60;;
11735;SDS011;5924;51.398;7.088;2022-11-12T00:05:21;6.63;;;4.10;;
11735;SDS011;5924;51.398;7.088;2022-11-12T00:07:48;4.00;;;3.60;;
11735;SDS011;5924;51.398;7.088;2022-11-12T00:10:13;4.17;;;3.73;;
11735;SDS011;5924;51.398;7.088;2022-11-12T00:12:40;3.00;;;2.90;;
11735;SDS011;5924;51.398;7.088;2022-11-12T00:15:05;2.70;;;2.70;;
11735;SDS011;5924;51.398;7.088;2022-11-12T00:17:31;3.30;;;3.20;;
11735;SDS011;5924;51.398;7.088;2022-11-12T00:19:57;4.53;;;2.93;;
11735;SDS011;5924;51.398;7.088;2022-11-12T00:22:22;3.30;;;3.20;;
11735;SDS011;5924;51.398;7.088;2022-11-12T00:24:48;5.80;;;4.10;;
11735;SDS011;5924;51.398;7.088;2022-11-12T00:27:14;3.37;;;3.27;;
11735;SDS011;5924;51.398;7.088;2022-11-12T00:29:39;3.43;;;3.17;;
11735;SDS011;5924;51.398;7.088;2022-11-12T00:32:05;3.33;;;3.23;;
11735;SDS011;5924;51.398;7.088;2022-11-12T00:34:31;3.07;;;2.90;;
11735;SDS011;5924;51.398;7.088;2022-11-12T00:36:58;2.80;;;2.70;;
11735;SDS011;5924;51.398;7.088;2022-11-12T00:39:24;2.97;;;2.87;;
11735;SDS011;5924;51.398;7.088;2022-11-12T00:41:50;3.20;;;2.83;;
11735;SDS011;5924;51.398;7.088;2022-11-12T00:44:15;5.47;;;3.73;;
11735;SDS011;5924;51.398;7.088;2022-11-12T00:46:41;3.00;;;2.90;;
11735;SDS011;5924;51.398;7.088;2022-11-12T00:49:07;3.73;;;3.50;;
11735;SDS011;5924;51.398;7.088;2022-11-12T00:51:33;3.53;;;3.23;;
11735;SDS011;5924;51.398;7.088;2022-11-12T00:53:59;2.90;;;2.80;;
11735;SDS011;5924;51.398;7.088;2022-11-12T00:56:25;3.00;;;2.90;;
11735;SDS011;5924;51.398;7.088;2022-11-12T00:58:50;3.80;;;3.43;;
11735;SDS011;5924;51.398;7.088;2022-11-12T01:01:16;2.73;;;2.63;;
11735;SDS011;5924;51.398;7.088;2022-11-12T01:03:42;3.00;;;2.70;;
11735;SDS011;5924;51.398;7.088;2022-11-12T01:06:09;2.80;;;2.70;;
11735;SDS011;5924;51.398;7.088;2022-11-12T01:08:37;5.57;;;3.03;;
11735;SDS011;5924;51.398;7.088;2022-11-12T01:11:04;3.13;;;2.83;;
11735;SDS011;5924;51.398;7.088;2022-11-12T01:13:31;3.33;;;3.13;;
11735;SDS011;5924;51.398;7.088;2022-11-12T01:15:56;3.87;;;3.30;;
11735;SDS011;5924;51.398;7.088;2022-11-12T01:18:22;3.47;;;3.27;;
11735;SDS011;5924;51.398;7.088;2022-11-12T01:20:48;3.03;;;2.93;;
11735;SDS011;5924;51.398;7.088;2022-11-12T01:23:13;3.83;;;3.63;;
11735;SDS011;5924;51.398;7.088;2022-11-12T01:25:39;2.97;;;2.93;;
11735;SDS011;5924;51.398;7.088;2022-11-12T01:28:04;3.00;;;2.83;;
11735;SDS011;5924;51.398;7.088;2022-11-12T01:30:30;3.43;;;3.20;;
11735;SDS011;5924;51.398;7.088;2022-11-12T01:32:56;3.33;;;2.90;;
11735;SDS011;5924;51.398;7.088;2022-11-12T01:35:21;2.90;;;2.80;;
11735;SDS011;5924;51.398;7.088;2022-11-12T01:37:47;3.17;;;3.00;;
11735;SDS011;5924;51.398;7.088;2022-11-12T01:40:12;3.23;;;3.13;;
11735;SDS011;5924;51.398;7.088;2022-11-12T01:42:39;3.43;;;3.23;;
11735;SDS011;5924;51.398;7.088;2022-11-12T01:45:11;3.63;;;3.30;;
11735;SDS011;5924;51.398;7.088;2022-11-12T01:47:41;3.00;;;2.90;;
11735;SDS011;5924;51.398;7.088;2022-11-12T01:50:41;2.77;;;2.57;;
11735;SDS011;5924;51.398;7.088;2022-11-12T01:53:05;2.60;;;2.50;;
11735;SDS011;5924;51.398;7.088;2022-11-12T01:55:34;3.50;;;3.20;;
11735;SDS011;5924;51.398;7.088;2022-11-12T01:58:09;2.67;;;2.57;;
11735;SDS011;5924;51.398;7.088;2022-11-12T02:00:37;3.50;;;3.30;;
11735;SDS011;5924;51.398;7.088;2022-11-12T02:03:08;4.67;;;2.60;;
11735;SDS011;5924;51.398;7.088;2022-11-12T02:05:39;2.83;;;2.73;;
11735;SDS011;5924;51.398;7.088;2022-11-12T02:08:06;5.70;;;3.53;;
11735;SDS011;5924;51.398;7.088;2022-11-12T02:10:35;2.50;;;2.40;;
11735;SDS011;5924;51.398;7.088;2022-11-12T02:13:03;3.27;;;3.17;;
11735;SDS011;5924;51.398;7.088;2022-11-12T02:15:48;3.63;;;3.33;;
11735;SDS011;5924;51.398;7.088;2022-11-12T02:18:14;3.00;;;2.70;;
11735;SDS011;5924;51.398;7.088;2022-11-12T02:20:41;3.50;;;3.40;;
11735;SDS011;5924;51.398;7.088;2022-11-12T02:23:06;3.23;;;3.13;;
11735;SDS011;5924;51.398;7.088;2022-11-12T02:25:32;2.83;;;2.73;;
11735;SDS011;5924;51.398;7.088;2022-11-12T02:27:59;3.07;;;2.97;;
11735;SDS011;5924;51.398;7.088;2022-11-12T02:30:40;3.43;;;3.30;;
11735;SDS011;5924;51.398;7.088;2022-11-12T02:33:07;3.20;;;3.10;;
11735;SDS011;5924;51.398;7.088;2022-11-12T02:35:32;4.00;;;3.70;;
11735;SDS011;5924;51.398;7.088;2022-11-12T02:37:58;3.37;;;3.07;;
11735;SDS011;5924;51.398;7.088;2022-11-12T02:40:24;3.47;;;3.23;;
11735;SDS011;5924;51.398;7.088;2022-11-12T02:42:49;3.40;;;3.30;;
11735;SDS011;5924;51.398;7.088;2022-11-12T02:45:15;4.07;;;3.90;;
11735;SDS011;5924;51.398;7.088;2022-11-12T02:47:42;4.97;;;3.43;;
11735;SDS011;5924;51.398;7.088;2022-11-12T02:50:08;3.53;;;3.20;;
11735;SDS011;5924;51.398;7.088;2022-11-12T02:52:34;4.00;;;3.30;;
11735;SDS011;5924;51.398;7.088;2022-11-12T02:55:00;4.13;;;3.83;;
11735;SDS011;5924;51.398;7.088;2022-11-12T02:57:26;3.73;;;3.50;;
11735;SDS011;5924;51.398;7.088;2022-11-12T02:59:53;3.17;;;3.07;;
11735;SDS011;5924;51.398;7.088;2022-11-12T03:02:19;4.10;;;3.70;;
11735;SDS011;5924;51.398;7.088;2022-11-12T03:04:44;5.43;;;3.60;;
11735;SDS011;5924;51.398;7.088;2022-11-12T03:07:10;4.10;;;3.87;;
11735;SDS011;5924;51.398;7.088;2022-11-12T03:09:35;4.33;;;4.03;;
11735;SDS011;5924;51.398;7.088;2022-11-12T03:12:01;10.57;;;3.70;;
11735;SDS011;5924;51.398;7.088;2022-11-12T03:14:27;3.73;;;3.17;;
11735;SDS011;5924;51.398;7.088;2022-11-12T03:16:52;5.90;;;3.53;;
11735;SDS011;5924;51.398;7.088;2022-11-12T03:19:18;4.10;;;3.90;;
11735;SDS011;5924;51.398;7.088;2022-11-12T03:21:44;4.37;;;4.03;;
11735;SDS011;5924;51.398;7.088;2022-11-12T03:24:09;3.80;;;3.70;;
11735;SDS011;5924;51.398;7.088;2022-11-12T03:26:35;4.00;;;3.80;;
11735;SDS011;5924;51.398;7.088;2022-11-12T03:29:00;4.97;;;3.37;;
11735;SDS011;5924;51.398;7.088;2022-11-12T03:31:26;3.63;;;3.43;;
11735;SDS011;5924;51.398;7.088;2022-11-12T03:33:52;4.10;;;3.90;;
11735;SDS011;5924;51.398;7.088;2022-11-12T03:36:18;4.10;;;3.83;;
11735;SDS011;5924;51.398;7.088;2022-11-12T03:38:44;3.27;;;3.17;;
11735;SDS011;5924;51.398;7.088;2022-11-12T03:41:09;3.67;;;2.97;;
11735;SDS011;5924;51.398;7.088;2022-11-12T03:43:35;3.43;;;3.30;;
11735;SDS011;5924;51.398;7.088;2022-11-12T03:46:00;3.30;;;3.20;;
11735;SDS011;5924;51.398;7.088;2022-11-12T03:48:26;3.80;;;3.60;;
11735;SDS011;5924;51.398;7.088;2022-11-12T03:50:52;5.83;;;3.47;;
11735;SDS011;5924;51.398;7.088;2022-11-12T03:53:22;4.60;;;4.20;;
11735;SDS011;5924;51.398;7.088;2022-11-12T03:55:47;3.77;;;3.57;;
11735;SDS011;5924;51.398;7.088;2022-11-12T03:58:13;4.77;;;4.37;;
11735;SDS011;5924;51.398;7.088;2022-11-12T04:00:38;3.70;;;3.50;;
11735;SDS011;5924;51.398;7.088;2022-11-12T04:03:04;3.97;;;3.77;;
11735;SDS011;5924;51.398;7.088;2022-11-12T04:05:30;3.40;;;3.30;;
11735;SDS011;5924;51.398;7.088;2022-11-12T04:08:15;3.53;;;3.40;;
11735;SDS011;5924;51.398;7.088;2022-11-12T04:11:08;3.17;;;2.97;;
11735;SDS011;5924;51.398;7.088;2022-11-12T04:13:39;6.10;;;3.37;;
11735;SDS011;5924;51.398;7.088;2022-11-12T04:19:01;3.63;;;3.53;;
11735;SDS011;5924;51.398;7.088;2022-11-12T04:21:58;2.80;;;2.70;;
11735;SDS011;5924;51.398;7.088;2022-11-12T04:24:33;3.60;;;3.43;;
11735;SDS011;5924;51.398;7.088;2022-11-12T04:27:26;4.43;;;4.20;;
11735;SDS011;5924;51.398;7.088;2022-11-12T04:29:56;3.80;;;3.60;;
11735;SDS011;5924;51.398;7.088;2022-11-12T04:32:46;4.03;;;3.83;;
11735;SDS011;5924;51.398;7.088;2022-11-12T04:35:18;3.40;;;3.20;;
11735;SDS011;5924;51.398;7.088;2022-11-12T04:37:45;4.13;;;3.93;;
11735;SDS011;5924;51.398;7.088;2022-11-12T04:40:15;4.50;;;4.30;;
11735;SDS011;5924;51.398;7.088;2022-11-12T04:43:02;4.07;;;3.83;;
11735;SDS011;5924;51.398;7.088;2022-11-12T04:45:48;3.70;;;3.60;;
11735;SDS011;5924;51.398;7.088;2022-11-12T04:48:15;4.17;;;3.97;;
11735;SDS011;5924;51.398;7.088;2022-11-12T04:50:42;4.10;;;4.00;;
11735;SDS011;5924;51.398;7.088;2022-11-12T04:53:10;4.20;;;3.83;;
11735;SDS011;5924;51.398;7.088;2022-11-12T04:55:35;4.33;;;4.13;;
11735;SDS011;5924;51.398;7.088;2022-11-12T04:58:01;6.23;;;4.60;;
11735;SDS011;5924;51.398;7.088;2022-11-12T05:00:27;4.70;;;4.40;;
11735;SDS011;5924;51.398;7.088;2022-11-12T05:02:52;3.80;;;3.53;;
11735;SDS011;5924;51.398;7.088;2022-11-12T05:05:18;3.60;;;3.43;;
11735;SDS011;5924;51.398;7.088;2022-11-12T05:07:44;8.33;;;4.07;;
11735;SDS011;5924;51.398;7.088;2022-11-12T05:10:09;4.40;;;4.10;;
11735;SDS011;5924;51.398;7.088;2022-11-12T05:12:35;4.30;;;4.10;;
11735;SDS011;5924;51.398;7.088;2022-11-12T05:15:01;4.07;;;3.87;;
11735;SDS011;5924;51.398;7.088;2022-11-12T05:17:27;3.47;;;3.30;;
11735;SDS011;5924;51.398;7.088;2022-11-12T05:19:53;3.30;;;3.20;;
11735;SDS011;5924;51.398;7.088;2022-11-12T05:22:18;4.20;;;4.00;;
11735;SDS011;5924;51.398;7.088;2022-11-12T05:24:44;3.80;;;3.60;;
11735;SDS011;5924;51.398;7.088;2022-11-12T05:27:11;4.53;;;4.13;;
11735;SDS011;5924;51.398;7.088;2022-11-12T05:29:37;3.33;;;3.23;;
11735;SDS011;5924;51.398;7.088;2022-11-12T05:32:04;4.10;;;3.90;;
11735;SDS011;5924;51.398;7.088;2022-11-12T05:34:31;4.33;;;4.10;;
11735;SDS011;5924;51.398;7.088;2022-11-12T05:36:57;3.57;;;3.47;;
11735;SDS011;5924;51.398;7.088;2022-11-12T05:39:23;4.40;;;4.10;;
11735;SDS011;5924;51.398;7.088;2022-11-12T05:41:49;4.60;;;4.30;;
11735;SDS011;5924;51.398;7.088;2022-11-12T05:44:15;4.37;;;4.07;;
11735;SDS011;5924;51.398;7.088;2022-11-12T05:46:40;4.33;;;4.03;;
11735;SDS011;5924;51.398;7.088;2022-11-12T05:49:06;4.63;;;4.43;;
11735;SDS011;5924;51.398;7.088;2022-11-12T05:51:32;5.30;;;4.90;;
11735;SDS011;5924;51.398;7.088;2022-11-12T05:53:57;5.47;;;4.93;;
11735;SDS011;5924;51.398;7.088;2022-11-12T05:56:23;6.10;;;5.13;;
11735;SDS011;5924;51.398;7.088;2022-11-12T05:58:49;8.10;;;4.83;;
11735;SDS011;5924;51.398;7.088;2022-11-12T06:01:15;5.00;;;4.70;;
11735;SDS011;5924;51.398;7.088;2022-11-12T06:03:40;7.27;;;3.80;;
11735;SDS011;5924;51.398;7.088;2022-11-12T06:06:06;5.03;;;4.53;;
11735;SDS011;5924;51.398;7.088;2022-11-12T06:08:32;4.20;;;3.90;;
11735;SDS011;5924;51.398;7.088;2022-11-12T06:10:57;4.20;;;4.00;;
11735;SDS011;5924;51.398;7.088;2022-11-12T06:13:23;4.30;;;4.10;;
11735;SDS011;5924;51.398;7.088;2022-11-12T06:15:50;3.20;;;3.10;;
11735;SDS011;5924;51.398;7.088;2022-11-12T06:18:17;4.23;;;4.07;;
11735;SDS011;5924;51.398;7.088;2022-11-12T06:20:42;4.30;;;4.00;;
11735;SDS011;5924;51.398;7.088;2022-11-12T06:23:08;4.10;;;3.90;;
11735;SDS011;5924;51.398;7.088;2022-11-12T06:25:33;6.20;;;3.70;;
11735;SDS011;5924;51.398;7.088;2022-11-12T06:27:59;3.90;;;3.70;;
11735;SDS011;5924;51.398;7.088;2022-11-12T06:30:25;4.00;;;3.73;;
11735;SDS011;5924;51.398;7.088;2022-11-12T06:32:51;5.83;;;5.00;;
11735;SDS011;5924;51.398;7.088;2022-11-12T06:35:17;4.77;;;4.57;;
11735;SDS011;5924;51.398;7.088;2022-11-12T06:37:46;5.87;;;4.30;;
11735;SDS011;5924;51.398;7.088;2022-11-12T06:40:13;4.53;;;4.17;;
11735;SDS011;5924;51.398;7.088;2022-11-12T06:42:39;4.03;;;3.93;;
11735;SDS011;5924;51.398;7.088;2022-11-12T06:45:05;4.30;;;4.00;;
11735;SDS011;5924;51.398;7.088;2022-11-12T06:47:31;4.40;;;3.93;;
11735;SDS011;5924;51.398;7.088;2022-11-12T06:49:57;4.10;;;4.00;;
11735;SDS011;5924;51.398;7.088;2022-11-12T06:52:23;6.50;;;4.10;;
11735;SDS011;5924;51.398;7.088;2022-11-12T06:54:48;4.10;;;3.90;;
11735;SDS011;5924;51.398;7.088;2022-11-12T06:57:14;5.80;;;4.53;;
11735;SDS011;5924;51.398;7.088;2022-11-12T06:59:39;4.30;;;4.00;;
11735;SDS011;5924;51.398;7.088;2022-11-12T07:02:05;8.00;;;6.17;;
11735;SDS011;5924;51.398;7.088;2022-11-12T07:04:31;10.53;;;7.93;;
11735;SDS011;5924;51.398;7.088;2022-11-12T07:06:56;11.97;;;8.63;;
11735;SDS011;5924;51.398;7.088;2022-11-12T07:09:22;9.40;;;7.60;;
11735;SDS011;5924;51.398;7.088;2022-11-12T07:11:48;7.03;;;6.40;;
11735;SDS011;5924;51.398;7.088;2022-11-12T07:14:13;6.30;;;5.80;;
11735;SDS011;5924;51.398;7.088;2022-11-12T07:16:39;6.67;;;6.07;;
11735;SDS011;5924;51.398;7.088;2022-11-12T07:19:05;5.73;;;5.33;;
11735;SDS011;5924;51.398;7.088;2022-11-12T07:21:30;6.47;;;5.83;;
11735;SDS011;5924;51.398;7.088;2022-11-12T07:23:56;5.50;;;5.00;;
11735;SDS011;5924;51.398;7.088;2022-11-12T07:26:23;9.20;;;5.53;;
11735;SDS011;5924;51.398;7.088;2022-11-12T07:28:51;5.53;;;5.23;;
11735;SDS011;5924;51.398;7.088;2022-11-12T07:31:18;4.57;;;4.30;;
11735;SDS011;5924;51.398;7.088;2022-11-12T07:33:44;5.77;;;5.23;;
11735;SDS011;5924;51.398;7.088;2022-11-12T07:36:11;5.97;;;5.47;;
11735;SDS011;5924;51.398;7.088;2022-11-12T07:38:39;4.83;;;4.53;;
11735;SDS011;5924;51.398;7.088;2022-11-12T07:41:07;5.90;;;5.27;;
11735;SDS011;5924;51.398;7.088;2022-11-12T07:43:36;5.43;;;4.90;;
11735;SDS011;5924;51.398;7.088;2022-11-12T07:46:07;5.17;;;4.83;;
11735;SDS011;5924;51.398;7.088;2022-11-12T07:48:35;5.63;;;5.10;;
11735;SDS011;5924;51.398;7.088;2022-11-12T07:51:03;5.20;;;4.80;;
11735;SDS011;5924;51.398;7.088;2022-11-12T07:53:28;5.00;;;4.70;;
11735;SDS011;5924;51.398;7.088;2022-11-12T07:55:55;4.50;;;4.30;;
11735;SDS011;5924;51.398;7.088;2022-11-12T07:58:23;5.00;;;4.67;;
11735;SDS011;5924;51.398;7.088;2022-11-12T08:00:50;5.27;;;4.87;;
11735;SDS011;5924;51.398;7.088;2022-11-12T08:03:16;5.00;;;4.70;;
11735;SDS011;5924;51.398;7.088;2022-11-12T08:05:43;5.23;;;4.93;;
11735;SDS011;5924;51.398;7.088;2022-11-12T08:08:09;5.13;;;4.73;;
11735;SDS011;5924;51.398;7.088;2022-11-12T08:10:35;5.10;;;4.80;;
11735;SDS011;5924;51.398;7.088;2022-11-12T08:13:01;4.97;;;4.60;;
11735;SDS011;5924;51.398;7.088;2022-11-12T08:15:27;4.90;;;4.50;;
11735;SDS011;5924;51.398;7.088;2022-11-12T08:17:53;4.90;;;4.63;;
11735;SDS011;5924;51.398;7.088;2022-11-12T08:20:18;5.37;;;5.07;;
11735;SDS011;5924;51.398;7.088;2022-11-12T08:22:44;5.50;;;5.10;;
11735;SDS011;5924;51.398;7.088;2022-11-12T08:25:10;4.73;;;4.50;;
11735;SDS011;5924;51.398;7.088;2022-11-12T08:27:35;4.80;;;4.50;;
11735;SDS011;5924;51.398;7.088;2022-11-12T08:30:01;6.13;;;5.13;;
11735;SDS011;5924;51.398;7.088;2022-11-12T08:32:28;5.07;;;4.77;;
11735;SDS011;5924;51.398;7.088;2022-11-12T08:34:53;5.47;;;5.07;;
11735;SDS011;5924;51.398;7.088;2022-11-12T08:37:19;5.33;;;4.90;;
11735;SDS011;5924;51.398;7.088;2022-11-12T08:39:44;5.80;;;5.40;;
11735;SDS011;5924;51.398;7.088;2022-11-12T08:42:10;4.97;;;4.70;;
11735;SDS011;5924;51.398;7.088;2022-11-12T08:44:35;5.07;;;4.73;;
11735;SDS011;5924;51.398;7.088;2022-11-12T08:47:01;6.20;;;5.63;;
11735;SDS011;5924;51.398;7.088;2022-11-12T08:49:27;6.80;;;5.60;;
11735;SDS011;5924;51.398;7.088;2022-11-12T08:51:53;5.43;;;5.10;;
11735;SDS011;5924;51.398;7.088;2022-11-12T08:54:19;4.83;;;4.63;;
11735;SDS011;5924;51.398;7.088;2022-11-12T08:56:45;5.00;;;4.70;;
11735;SDS011;5924;51.398;7.088;2022-11-12T08:59:11;6.20;;;5.60;;
11735;SDS011;5924;51.398;7.088;2022-11-12T09:01:36;5.20;;;4.80;;
11735;SDS011;5924;51.398;7.088;2022-11-12T09:04:02;5.17;;;4.93;;
11735;SDS011;5924;51.398;7.088;2022-11-12T09:06:28;5.53;;;5.13;;
11735;SDS011;5924;51.398;7.088;2022-11-12T09:08:54;5.43;;;5.10;;
11735;SDS011;5924;51.398;7.088;2022-11-12T09:11:20;6.17;;;5.70;;
11735;SDS011;5924;51.398;7.088;2022-11-12T09:13:45;6.03;;;5.67;;
11735;SDS011;5924;51.398;7.088;2022-11-12T09:16:11;5.70;;;5.40;;
11735;SDS011;5924;51.398;7.088;2022-11-12T09:18:37;7.00;;;6.30;;
11735;SDS011;5924;51.398;7.088;2022-11-12T09:21:03;6.80;;;6.20;;
11735;SDS011;5924;51.398;7.088;2022-11-12T09:23:32;5.33;;;4.93;;
11735;SDS011;5924;51.398;7.088;2022-11-12T09:25:59;8.13;;;5.10;;
11735;SDS011;5924;51.398;7.088;2022-11-12T09:28:25;4.97;;;4.70;;
11735;SDS011;5924;51.398;7.088;2022-11-12T09:30:51;6.60;;;6.20;;
11735;SDS011;5924;51.398;7.088;2022-11-12T09:33:20;7.83;;;5.87;;
11735;SDS011;5924;51.398;7.088;2022-11-12T09:35:54;6.63;;;6.03;;
11735;SDS011;5924;51.398;7.088;2022-11-12T09:38:20;6.17;;;5.77;;
11735;SDS011;5924;51.398;7.088;2022-11-12T09:46:24;5.63;;;5.23;;
11735;SDS011;5924;51.398;7.088;2022-11-12T09:48:54;5.70;;;5.33;;
11735;SDS011;5924;51.398;7.088;2022-11-12T09:51:27;5.63;;;5.10;;
11735;SDS011;5924;51.398;7.088;2022-11-12T09:53:58;6.23;;;5.73;;
11735;SDS011;5924;51.398;7.088;2022-11-12T09:56:45;5.97;;;5.47;;
11735;SDS011;5924;51.398;7.088;2022-11-12T09:59:12;5.50;;;5.07;;
11735;SDS011;5924;51.398;7.088;2022-11-12T10:21:52;4.23;;;4.03;;
11735;SDS011;5924;51.398;7.088;2022-11-12T10:24:35;5.50;;;4.63;;
11735;SDS011;5924;51.398;7.088;2022-11-12T10:27:15;5.27;;;3.50;;
11735;SDS011;5924;51.398;7.088;2022-11-12T10:32:24;3.17;;;3.07;;
11735;SDS011;5924;51.398;7.088;2022-11-12T10:34:50;3.60;;;3.50;;
11735;SDS011;5924;51.398;7.088;2022-11-12T10:39:44;8.03;;;5.03;;
11735;SDS011;5924;51.398;7.088;2022-11-12T10:42:15;4.33;;;4.00;;
11735;SDS011;5924;51.398;7.088;2022-11-12T10:44:42;3.80;;;3.60;;
11735;SDS011;5924;51.398;7.088;2022-11-12T10:49:40;4.43;;;4.23;;
11735;SDS011;5924;51.398;7.088;2022-11-12T10:52:16;3.73;;;3.20;;
11735;SDS011;5924;51.398;7.088;2022-11-12T10:54:45;5.10;;;4.80;;
11735;SDS011;5924;51.398;7.088;2022-11-12T11:00:02;7.33;;;3.60;;
11735;SDS011;5924;51.398;7.088;2022-11-12T11:02:52;4.40;;;4.20;;
11735;SDS011;5924;51.398;7.088;2022-11-12T11:06:20;4.13;;;3.20;;
11735;SDS011;5924;51.398;7.088;2022-11-12T11:08:46;4.03;;;3.20;;
11735;SDS011;5924;51.398;7.088;2022-11-12T11:11:20;3.10;;;3.00;;
11735;SDS011;5924;51.398;7.088;2022-11-12T11:13:52;2.57;;;2.47;;
11735;SDS011;5924;51.398;7.088;2022-11-12T11:18:54;2.57;;;2.47;;
11735;SDS011;5924;51.398;7.088;2022-11-12T11:26:53;2.73;;;2.63;;
11735;SDS011;5924;51.398;7.088;2022-11-12T11:32:46;2.00;;;2.00;;
11735;SDS011;5924;51.398;7.088;2022-11-12T11:35:20;2.00;;;1.70;;
11735;SDS011;5924;51.398;7.088;2022-11-12T11:43:57;1.50;;;1.50;;
11735;SDS011;5924;51.398;7.088;2022-11-12T11:52:01;1.40;;;1.40;;
11735;SDS011;5924;51.398;7.088;2022-11-12T11:57:27;1.87;;;1.77;;
11735;SDS011;5924;51.398;7.088;2022-11-12T12:05:35;1.40;;;1.40;;
11735;SDS011;5924;51.398;7.088;2022-11-12T12:16:24;1.37;;;1.37;;
11735;SDS011;5924;51.398;7.088;2022-11-12T12:19:29;2.53;;;1.80;;
11735;SDS011;5924;51.398;7.088;2022-11-12T12:22:16;1.13;;;1.13;;
11735;SDS011;5924;51.398;7.088;2022-11-12T12:27:29;1.53;;;1.53;;
11735;SDS011;5924;51.398;7.088;2022-11-12T12:30:03;1.20;;;1.20;;
11735;SDS011;5924;51.398;7.088;2022-11-12T12:33:00;1.30;;;1.30;;
11735;SDS011;5924;51.398;7.088;2022-11-12T12:35:28;1.30;;;1.30;;
11735;SDS011;5924;51.398;7.088;2022-11-12T12:43:34;4.00;;;2.20;;
11735;SDS011;5924;51.398;7.088;2022-11-12T12:46:03;2.40;;;2.30;;
11735;SDS011;5924;51.398;7.088;2022-11-12T12:48:34;2.00;;;1.93;;
11735;SDS011;5924;51.398;7.088;2022-11-12T12:51:03;2.50;;;2.40;;
11735;SDS011;5924;51.398;7.088;2022-11-12T12:55:56;2.00;;;2.00;;
11735;SDS011;5924;51.398;7.088;2022-11-12T13:09:32;2.63;;;2.43;;
11735;SDS011;5924;51.398;7.088;2022-11-12T13:32:55;1.70;;;1.60;;
11735;SDS011;5924;51.398;7.088;2022-11-12T13:51:00;2.10;;;1.80;;
11735;SDS011;5924;51.398;7.088;2022-11-12T13:53:29;1.47;;;1.47;;
11735;SDS011;5924;51.398;7.088;2022-11-12T13:55:56;1.23;;;1.23;;
11735;SDS011;5924;51.398;7.088;2022-11-12T13:58:26;1.40;;;1.40;;
11735;SDS011;5924;51.398;7.088;2022-11-12T14:00:57;1.43;;;1.43;;
11735;SDS011;5924;51.398;7.088;2022-11-12T14:03:27;1.50;;;1.50;;
11735;SDS011;5924;51.398;7.088;2022-11-12T14:06:04;1.97;;;1.87;;
11735;SDS011;5924;51.398;7.088;2022-11-12T14:11:44;1.53;;;1.53;;
11735;SDS011;5924;51.398;7.088;2022-11-12T14:14:28;1.57;;;1.47;;
11735;SDS011;5924;51.398;7.088;2022-11-12T14:22:49;1.70;;;1.70;;
11735;SDS011;5924;51.398;7.088;2022-11-12T14:25:20;2.27;;;2.07;;
11735;SDS011;5924;51.398;7.088;2022-11-12T14:27:50;1.47;;;1.47;;
11735;SDS011;5924;51.398;7.088;2022-11-12T14:32:59;1.43;;;1.27;;
11735;SDS011;5924;51.398;7.088;2022-11-12T14:40:37;1.70;;;1.70;;
11735;SDS011;5924;51.398;7.088;2022-11-12T14:46:00;2.07;;;1.97;;
11735;SDS011;5924;51.398;7.088;2022-11-12T14:48:28;1.90;;;1.90;;
11735;SDS011;5924;51.398;7.088;2022-11-12T14:51:02;2.50;;;2.33;;
11735;SDS011;5924;51.398;7.088;2022-11-12T14:53:31;1.60;;;1.60;;
11735;SDS011;5924;51.398;7.088;2022-11-12T14:56:03;2.10;;;2.10;;
11735;SDS011;5924;51.398;7.088;2022-11-12T14:58:31;2.57;;;2.47;;
11735;SDS011;5924;51.398;7.088;2022-11-12T15:00:57;2.87;;;2.40;;
11735;SDS011;5924;51.398;7.088;2022-11-12T15:03:40;2.60;;;2.50;;
11735;SDS011;5924;51.398;7.088;2022-11-12T15:06:07;2.60;;;2.50;;
11735;SDS011;5924;51.398;7.088;2022-11-12T15:08:36;2.50;;;2.40;;
11735;SDS011;5924;51.398;7.088;2022-11-12T15:13:46;4.03;;;2.80;;
11735;SDS011;5924;51.398;7.088;2022-11-12T15:16:32;2.40;;;2.40;;
11735;SDS011;5924;51.398;7.088;2022-11-12T15:19:01;3.40;;;3.30;;
11735;SDS011;5924;51.398;7.088;2022-11-12T15:21:30;3.47;;;3.17;;
11735;SDS011;5924;51.398;7.088;2022-11-12T15:29:01;4.10;;;3.73;;
11735;SDS011;5924;51.398;7.088;2022-11-12T15:31:41;3.60;;;3.20;;
11735;SDS011;5924;51.398;7.088;2022-11-12T15:37:05;3.17;;;2.87;;
11735;SDS011;5924;51.398;7.088;2022-11-12T15:39:41;2.93;;;2.63;;
11735;SDS011;5924;51.398;7.088;2022-11-12T15:42:51;3.03;;;2.83;;
11735;SDS011;5924;51.398;7.088;2022-11-12T15:45:02;3.60;;;3.30;;
11735;SDS011;5924;51.398;7.088;2022-11-12T15:47:34;3.50;;;3.20;;
11735;SDS011;5924;51.398;7.088;2022-11-12T15:50:00;3.43;;;3.23;;
11735;SDS011;5924;51.398;7.088;2022-11-12T15:52:38;3.50;;;3.27;;
11735;SDS011;5924;51.398;7.088;2022-11-12T15:55:04;3.97;;;3.67;;
11735;SDS011;5924;51.398;7.088;2022-11-12T15:57:31;3.50;;;3.30;;
11735;SDS011;5924;51.398;7.088;2022-11-12T16:00:06;3.30;;;3.20;;
11735;SDS011;5924;51.398;7.088;2022-11-12T16:02:38;4.37;;;3.90;;
11735;SDS011;5924;51.398;7.088;2022-11-12T16:05:04;2.60;;;2.50;;
11735;SDS011;5924;51.398;7.088;2022-11-12T16:07:35;3.00;;;2.90;;
11735;SDS011;5924;51.398;7.088;2022-11-12T16:10:01;3.10;;;3.00;;
11735;SDS011;5924;51.398;7.088;2022-11-12T16:12:27;3.17;;;2.80;;
11735;SDS011;5924;51.398;7.088;2022-11-12T16:14:53;3.50;;;3.33;;
11735;SDS011;5924;51.398;7.088;2022-11-12T16:17:19;4.17;;;3.77;;
11735;SDS011;5924;51.398;7.088;2022-11-12T16:19:45;4.43;;;3.20;;
11735;SDS011;5924;51.398;7.088;2022-11-12T16:22:10;2.97;;;2.87;;
11735;SDS011;5924;51.398;7.088;2022-11-12T16:24:42;3.20;;;3.10;;
11735;SDS011;5924;51.398;7.088;2022-11-12T16:27:10;3.23;;;3.13;;
11735;SDS011;5924;51.398;7.088;2022-11-12T16:29:39;3.43;;;3.20;;
11735;SDS011;5924;51.398;7.088;2022-11-12T16:32:05;3.33;;;3.23;;
11735;SDS011;5924;51.398;7.088;2022-11-12T16:34:35;8.73;;;7.63;;
11735;SDS011;5924;51.398;7.088;2022-11-12T16:37:01;19.70;;;12.80;;
11735;SDS011;5924;51.398;7.088;2022-11-12T16:39:26;35.57;;;19.90;;
11735;SDS011;5924;51.398;7.088;2022-11-12T16:41:52;39.50;;;21.00;;
11735;SDS011;5924;51.398;7.088;2022-11-12T16:44:18;34.03;;;19.30;;
11735;SDS011;5924;51.398;7.088;2022-11-12T16:46:43;26.70;;;16.97;;
11735;SDS011;5924;51.398;7.088;2022-11-12T16:49:12;23.10;;;15.20;;
11735;SDS011;5924;51.398;7.088;2022-11-12T16:51:39;21.30;;;14.10;;
11735;SDS011;5924;51.398;7.088;2022-11-12T16:54:05;19.57;;;13.03;;
11735;SDS011;5924;51.398;7.088;2022-11-12T16:56:31;12.53;;;10.23;;
11735;SDS011;5924;51.398;7.088;2022-11-12T16:58:57;10.97;;;9.77;;
11735;SDS011;5924;51.398;7.088;2022-11-12T17:01:27;10.50;;;8.33;;
11735;SDS011;5924;51.398;7.088;2022-11-12T17:03:55;11.73;;;8.50;;
11735;SDS011;5924;51.398;7.088;2022-11-12T17:06:30;9.80;;;8.00;;
11735;SDS011;5924;51.398;7.088;2022-11-12T17:08:58;7.97;;;7.27;;
11735;SDS011;5924;51.398;7.088;2022-11-12T17:11:23;6.70;;;6.10;;
11735;SDS011;5924;51.398;7.088;2022-11-12T17:13:49;8.80;;;5.47;;
11735;SDS011;5924;51.398;7.088;2022-11-12T17:16:15;5.80;;;5.40;;
11735;SDS011;5924;51.398;7.088;2022-11-12T17:18:40;5.90;;;5.40;;
11735;SDS011;5924;51.398;7.088;2022-11-12T17:21:07;7.70;;;5.30;;
11735;SDS011;5924;51.398;7.088;2022-11-12T17:23:33;5.80;;;5.30;;
11735;SDS011;5924;51.398;7.088;2022-11-12T17:25:59;5.50;;;5.07;;
11735;SDS011;5924;51.398;7.088;2022-11-12T17:28:26;6.83;;;6.27;;
11735;SDS011;5924;51.398;7.088;2022-11-12T17:31:05;6.80;;;5.83;;
11735;SDS011;5924;51.398;7.088;2022-11-12T17:33:38;7.40;;;6.67;;
11735;SDS011;5924;51.398;7.088;2022-11-12T17:36:12;10.23;;;8.83;;
11735;SDS011;5924;51.398;7.088;2022-11-12T17:38:39;12.57;;;9.27;;
11735;SDS011;5924;51.398;7.088;2022-11-12T17:41:05;13.53;;;10.23;;
11735;SDS011;5924;51.398;7.088;2022-11-12T17:43:32;14.20;;;12.33;;
11735;SDS011;5924;51.398;7.088;2022-11-12T17:45:58;14.37;;;12.97;;
11735;SDS011;5924;51.398;7.088;2022-11-12T17:48:24;13.03;;;11.83;;
11735;SDS011;5924;51.398;7.088;2022-11-12T17:50:51;12.03;;;10.83;;
11735;SDS011;5924;51.398;7.088;2022-11-12T17:53:27;10.93;;;10.03;;
11735;SDS011;5924;51.398;7.088;2022-11-12T17:55:56;11.30;;;10.20;;